aviador You're here:

KBKW Decoded Metar

BECKLEY in WV, USA
Report Time2018-05-28 08:51:00
UTC Time2018-05-28 09:52:16
Flight Rules vfr VFR
Wind130° at 04 kt
W.Decomp.*RWY 10: 3.2 kt HW 2.4 kt RCW
RWY 19: 2.4 kt HW 3.2 kt LCW
W.Rank130° ranks 3
Current wind is below 130° avg. (7.6)
Visibility9999 m
Phenomena:N/A
Clouds:N/A
Expected CloudBase > 400 ft AGL from Temp-Dew spread
CeilingNone
Temp18°C (ISA +8)
Dew Point17°C (94% RH)
QNH1017 hPa
Density Alt3,576 ft
Elevation2,507 ft
Report Wrong Elevation
Raw Report
KBKW 280851Z AUTO 13004KT 10SM CLR 18/17 A3004 RMK AO2 SLP140
T01830167 55005 TSNO=

Extra information for KBKW:More info

Metar Taf Metar & Taf Last 4 Metars F.Rules Stats Wind Profile Meteogram Temp Stats Airport Information Weather charts Add Link Nearby VenuesMetar ALERT Operation Metar Decoded Social comments

AIRNAV info for KBKW